• Join FlightAware (Why Join?)
  • Login
  • US Flag 
05:05PM EDT


 

Airport Tracker/Info


-or-


 

Live Flight TrackerFlight Track Log ✈ JBU464 ✈ 19-Apr-2012 ✈ KRSW - KBOS

Flight Track Log - Related Links

Times and Time Zones

All times are in EDT time to prevent confusion due to time zone crossing. See the JBU464 flight status page for this flight to view local times or setup timezone preferences in your user account.

Time Position Orientation Groundspeed Altitude Reporting Facility
EDT Latitude Longitude Course Direction KTS MPH feet Rate Location/Type
08:09AM 26.5681 -81.7522 23° Northeast  Level FlightAware Approximate
08:10AM 26.6964 -81.7500 84° East  Level FlightAware Approximate
08:11AM 26.7963 -81.6870 181° South  Level FlightAware Approximate
08:12AM 26.7022 -81.6883 350° North 279 321 6,800  Level Miami Center
08:13AM 26.7811 -81.7033 359° North 279 321 9,900 2,280 Climbing Miami Center
08:14AM 26.8708 -81.7047 18° North 292 336 11,400 1,920 Climbing Miami Center
08:15AM 26.9678 -81.6692 27° Northeast 336 387 13,800 2,400 Climbing Miami Center
08:16AM 27.0617 -81.6147 28° Northeast 351 404 16,300 2,160 Climbing Miami Center
08:17AM 27.1572 -81.5581 14° North 370 426 18,200 1,860 Climbing Miami Center
08:18AM 27.2647 -81.5272 North 386 444 20,100 1,860 Climbing Miami Center
08:19AM 27.3653 -81.5172 North 391 450 22,000 1,680 Climbing Miami Center
08:20AM 27.4953 -81.4967 North 414 476 23,500 1,320 Climbing Miami Center
08:21AM 27.6150 -81.4783 North 430 495 24,700 1,260 Climbing Miami Center
08:22AM 27.7367 -81.4597 North 430 495 26,100 1,200 Climbing Miami Center
08:23AM 27.8478 -81.4408 North 438 504 27,200 1,200 Climbing Miami Center
08:24AM 27.9736 -81.4200 North 448 516 28,500 1,200 Climbing Miami Center
08:25AM 28.1014 -81.4086 357° North 453 521 29,600 1,140 Climbing Miami Center
08:27AM 28.3858 -81.4250 358° North 446 513 32,100 1,020 Climbing Jacksonville Center
08:28AM 28.5131 -81.4303 357° North 446 513 32,900 360 Climbing Jacksonville Center
08:29AM 28.6364 -81.4378 358° North 451 519 32,900  Level Jacksonville Center
08:30AM 28.7658 -81.4431 358° North 451 519 32,900  Level Jacksonville Center
08:31AM 28.8911 -81.4483 358° North 451 519 32,900  Level Jacksonville Center
08:32AM 29.0183 -81.4536 358° North 451 519 32,900  Level Jacksonville Center
08:33AM 29.1436 -81.4589 360° North 451 519 32,900  Level Jacksonville Center
08:34AM 29.2564 -81.4597 358° North 457 526 32,900 300 Level Jacksonville Center
08:35AM 29.3858 -81.4650 357° North 450 518 33,500 840 Climbing Jacksonville Center
08:36AM 29.5069 -81.4728 358° North 450 518 34,600 720 Climbing Jacksonville Center
08:37AM 29.6344 -81.4781 358° North 450 518 35,000 120 Climbing Jacksonville Center
08:38AM 29.7578 -81.4833 358° North 444 511 34,900 -60 Descending Jacksonville Center
08:39AM 29.8850 -81.4886 358° North 444 511 34,900  Level Jacksonville Center
08:40AM 30.0083 -81.4942 358° North 444 511 34,900  Level Jacksonville Center
08:41AM 30.1358 -81.4994 358° North 450 518 34,900  Level Jacksonville Center
08:42AM 30.2611 -81.5050 360° North 450 518 34,900  Level Jacksonville Center
08:43AM 30.3906 -81.5056 North 450 518 35,000  Climbing Jacksonville Center
08:44AM 30.5178 -81.4939 North 450 518 34,900  Descending Jacksonville Center
08:45AM 30.6450 -81.4850 14° North 455 524 35,000  Climbing Jacksonville Center
08:46AM 30.7700 -81.4492 30° Northeast 460 529 35,000 -60 Level Jacksonville Center
08:47AM 30.8839 -81.3725 29° Northeast 457 526 34,900 -60 Descending Jacksonville Center
08:48AM 30.9997 -81.2978 29° Northeast 462 532 34,900  Level Jacksonville Center
08:49AM 31.1136 -81.2231 30° Northeast 467 537 35,000  Climbing Jacksonville Center
08:50AM 31.2400 -81.1383 28° Northeast 467 537 35,000  Level Jacksonville Center
08:51AM 31.3558 -81.0656 30° Northeast 462 532 35,000  Level Jacksonville Center
08:52AM 31.4572 -80.9978 28° Northeast 462 532 35,000  Level Jacksonville Center
08:53AM 31.5853 -80.9172 30° Northeast 462 532 35,000  Level Jacksonville Center
08:54AM 31.6969 -80.8414 29° Northeast 462 532 35,000  Level Jacksonville Center
08:55AM 31.8125 -80.7656 30° Northeast 462 532 35,000  Level Jacksonville Center
08:56AM 31.9261 -80.6894 29° Northeast 468 539 35,000  Level Jacksonville Center
08:57AM 32.0314 -80.6208 30° Northeast 468 539 35,000  Level Jacksonville Center
08:58AM 32.1592 -80.5319 29° Northeast 473 544 35,000  Level Jacksonville Center
08:59AM 32.2767 -80.4550 31° Northeast 473 544 35,000 -60 Level Jacksonville Center
09:00AM 32.3900 -80.3758 29° Northeast 473 544 34,900 -60 Descending Jacksonville Center
09:01AM 32.5053 -80.3011 29° Northeast 468 539 34,900  Level Jacksonville Center
09:02AM 32.6206 -80.2239 30° Northeast 468 539 34,900  Level Jacksonville Center
09:03AM 32.7381 -80.1439 31° Northeast 468 539 34,900  Level Jacksonville Center
09:04AM 32.8508 -80.0639 31° Northeast 468 539 34,900  Level Jacksonville Center
09:05AM 32.9681 -79.9808 30° Northeast 473 544 35,000  Climbing Jacksonville Center
09:06AM 33.0728 -79.9081 32° Northeast 480 552 34,900  Descending Jacksonville Center
09:07AM 33.1897 -79.8197 31° Northeast 480 552 35,000  Climbing Jacksonville Center
09:08AM 33.3044 -79.7386 31° Northeast 480 552 35,000 -60 Level Jacksonville Center
09:09AM 33.4214 -79.6550 33° Northeast 480 552 34,900  Descending Jacksonville Center
09:10AM 33.5358 -79.5661 31° Northeast 480 552 35,000  Climbing Jacksonville Center
09:11AM 33.6506 -79.4819 29° Northeast 480 552 34,900  Descending Jacksonville Center
09:12AM 33.7797 -79.3969 32° Northeast 480 552 35,000  Climbing Jacksonville Center
09:13AM 33.8942 -79.3100 31° Northeast 480 552 35,000  Level Jacksonville Center
09:14AM 34.0125 -79.2225 32° Northeast 480 552 35,000  Level Jacksonville Center
09:16AM 34.2728 -79.0222 31° Northeast 499 574 35,000  Level Washington Center
09:17AM 34.3878 -78.9389 32° Northeast 488 562 35,000  Level Washington Center
09:18AM 34.5050 -78.8506 35° Northeast 488 562 35,000  Level Washington Center
09:19AM 34.6161 -78.7567 31° Northeast 488 562 35,000  Level Washington Center
09:20AM 34.7353 -78.6703 33° Northeast 493 567 35,000  Level Washington Center
09:21AM 34.8353 -78.5906 32° Northeast 487 560 35,000  Level Washington Center
09:22AM 34.9522 -78.5011 32° Northeast 492 566 35,000  Level Washington Center
09:23AM 35.0692 -78.4114 33° Northeast 487 560 35,000  Level Washington Center
09:24AM 35.1819 -78.3214 32° Northeast 492 566 35,000  Level Washington Center
09:25AM 35.3008 -78.2311 32° Northeast 492 566 35,000  Level Washington Center
09:26AM 35.4175 -78.1408 32° Northeast 492 566 35,000  Level Washington Center
09:27AM 35.5342 -78.0525 33° Northeast 492 566 35,000  Level Washington Center
09:28AM 35.6528 -77.9592 32° Northeast 492 566 35,000  Level Washington Center
09:29AM 35.7694 -77.8678 32° Northeast 486 559 35,000  Level Washington Center
09:30AM 35.8858 -77.7789 34° Northeast 492 566 35,000  Level Washington Center
09:31AM 35.9981 -77.6869 37° Northeast 485 558 35,000  Level Washington Center
09:32AM 36.1103 -77.5819 36° Northeast 485 558 35,000  Level Washington Center
09:33AM 36.2331 -77.4717 38° Northeast 490 564 35,000  Level Washington Center
09:34AM 36.3369 -77.3711 38° Northeast 480 552 35,000  Level Washington Center
09:35AM 36.4469 -77.2653 37° Northeast 480 552 35,000  Level Washington Center
09:36AM 36.5569 -77.1614 37° Northeast 491 565 35,000  Level Washington Center
09:37AM 36.6667 -77.0575 37° Northeast 491 565 35,000  Level Washington Center
09:38AM 36.7658 -76.9636 36° Northeast 497 572 35,000  Level Washington Center
09:39AM 36.8794 -76.8617 35° Northeast 492 566 35,000  Level Washington Center
09:40AM 36.9911 -76.7619 36° Northeast 492 566 35,000  Level Washington Center
09:41AM 37.1025 -76.6597 36° Northeast 487 560 35,000  Level Washington Center
09:42AM 37.2119 -76.5594 36° Northeast 487 560 35,000  Level Washington Center
09:43AM 37.3233 -76.4589 36° Northeast 487 560 35,000  Level Washington Center
09:44AM 37.4344 -76.3556 35° Northeast 487 560 35,000  Level Washington Center
09:45AM 37.5436 -76.2597 35° Northeast 487 560 35,000 -60 Level Washington Center
09:46AM 37.6650 -76.1533 35° Northeast 487 560 34,900  Descending Washington Center
09:47AM 37.7550 -76.0725 38° Northeast 487 560 35,000  Climbing Washington Center
09:48AM 37.8828 -75.9444 37° Northeast 481 554 35,000  Level Washington Center
09:49AM 37.9914 -75.8419 37° Northeast 486 559 35,000  Level Washington Center
09:50AM 38.1000 -75.7369 36° Northeast 486 559 35,000  Level Washington Center
09:51AM 38.2128 -75.6339 33° Northeast 486 559 35,000 -60 Level Washington Center
09:52AM 38.3253 -75.5414 30° Northeast 486 559 34,900  Descending Washington Center
09:53AM 38.4400 -75.4564 30° Northeast 481 554 35,000  Climbing Washington Center
09:54AM 38.5567 -75.3714 31° Northeast 476 548 34,900 -60 Descending Washington Center
09:55AM 38.6711 -75.2833 29° Northeast 470 541 34,900  Level Washington Center
09:56AM 38.7856 -75.2003 30° Northeast 470 541 34,900  Level Washington Center
09:57AM 38.8997 -75.1142 32° Northeast 470 541 35,000  Climbing Washington Center
09:58AM 39.0119 -75.0225 33° Northeast 470 541 35,000 -60 Level Washington Center
09:59AM 39.1197 -74.9308 32° Northeast 470 541 34,900  Descending Washington Center
10:00AM 39.2339 -74.8386 34° Northeast 475 547 35,000  Climbing Washington Center
10:01AM 39.3417 -74.7436 33° Northeast 475 547 35,000  Level Washington Center
10:03AM 39.5264 -74.5900 33° Northeast 471 542 35,000  Level New York Center
10:04AM 39.6356 -74.4989 19° North 471 542 35,000  Level New York Center
10:05AM 39.7497 -74.4483 North 471 542 35,000  Level New York Center
10:06AM 39.8731 -74.4386 North 445 512 35,000 -60 Level New York Center
10:07AM 40.0006 -74.4317 North 450 518 34,900  Descending New York Center
10:08AM 40.1258 -74.4219 North 450 518 35,000 -360 Climbing New York Center
10:09AM 40.2681 -74.4050 39° Northeast 450 518 34,200 -1,140 Descending New York Center
10:10AM 40.3672 -74.2986 52° Northeast 440 506 32,800 -1,620 Descending New York Center
10:11AM 40.4483 -74.1611 53° Northeast 440 506 31,100 -1,560 Descending New York Center
10:12AM 40.5119 -74.0494 53° Northeast 452 520 29,800 -1,800 Descending New York Center
10:15AM 40.7244 -73.6725 52° Northeast 478 550 24,700 -1,680 Descending Boston Center
10:16AM 40.8050 -73.5342 51° Northeast 472 543 23,900 -420 Descending Boston Center
10:17AM 40.8853 -73.4036 49° Northeast 467 537 23,900  Level Boston Center
10:18AM 40.9697 -73.2731 54° Northeast 467 537 24,000 -300 Climbing Boston Center
10:19AM 41.0436 -73.1364 57° Northeast 467 537 23,400 -540 Descending Boston Center
10:20AM 41.1133 -72.9911 58° Northeast 462 532 23,000 -240 Descending Boston Center
10:21AM 41.1806 -72.8483 59° Northeast 457 526 23,000  Level Boston Center
10:22AM 41.2475 -72.7022 57° Northeast 457 526 23,000 -60 Level Boston Center
10:23AM 41.3167 -72.5589 58° Northeast 451 519 22,900 -60 Descending Boston Center
10:24AM 41.3833 -72.4153 60° Northeast 451 519 22,900  Level Boston Center
10:25AM 41.4542 -72.2544 64° Northeast 451 519 22,900 -180 Level Boston Center
10:26AM 41.5039 -72.1186 64° Northeast 446 513 22,600 -1,440 Descending Boston Center
10:27AM 41.5575 -71.9686 64° Northeast 446 513 20,100 -2,400 Descending Boston Center
10:28AM 41.6150 -71.8125 64° Northeast 431 496 17,800 -1,800 Descending Boston Center
10:29AM 41.6603 -71.6900 64° Northeast 415 478 16,600 -1,320 Descending Boston Center
10:30AM 41.7153 -71.5419 65° Northeast 410 472 15,200 -1,380 Descending Boston Center
10:31AM 41.7642 -71.4019 63° Northeast 403 464 13,900 -1,320 Descending Boston Center
10:32AM 41.8131 -71.2731 65° Northeast 393 452 12,600 -1,440 Descending Boston Center
10:33AM 41.8594 -71.1383 62° Northeast 387 445 11,100 -1,200 Descending Boston Center
10:34AM 41.9058 -71.0231 61° Northeast 374 430 10,200 -780 Descending Boston Center
10:35AM 41.9483 -70.9189 61° Northeast 327 376 9,600 -540 Descending Boston Center
10:36AM 41.9847 -70.8314 57° Northeast 306 352 9,200 -600 Descending Boston Center
10:37AM 42.0333 -70.7322 43° Northeast 306 352 8,500 -660 Descending Boston Center
10:38AM 42.0925 -70.6581 19° North 301 346 7,900 -900 Descending Boston Center
10:39AM 42.1692 -70.6222 19° North 288 331 6,700 -1,140 Descending Boston Center
10:40AM 42.2394 -70.5892 350° North 274 315 5,700 -1,020 Descending Boston Center
10:41AM 42.3022 -70.6042 327° Northwest 236 272 4,700 -1,200 Descending Boston Center
10:42AM 42.3528 -70.6478 311° West 208 239 3,300 -900 Descending Boston Center
10:43AM 42.3914 -70.7083 280° West 208 239 3,000 -180 Descending Boston Center
10:44AM 42.4008 -70.7842 251° West 202 232 3,000 -660 Level Boston Center
10:46AM 42.3667 -70.9167 270° West 150 173 1,100 -840 Descending Boston TRACON
10:47AM 42.3667 -70.9667 270° West 130 150 400 -660 Descending Boston TRACON